Adkins, Texas
Current Conditions -  °F | °C
As of 7:58 AM on Friday 24 Oct 2014 (Local Time) from KRND Reporting Station
Clear Clear  
Wind Chill: 58°   Ceiling: Unl
Heat Index: 58°   Visibility: 10mi
Dew Point: 54°   Wind: 2mph
Humidity: 87%   Direction: 10°N
Pressure: 30.15"   Gusts: NA
Location:  29.39°N, 98.24°W
Report Text: KRND 241258Z AUTO 01002KT 10SM CLR 14/12 A3015 RMK AO2 SLP206 T01440122
Loading
Personal Weather Stations






























Interactive Weather Map
Tropical Storm Tracking
New forecast layout! Learn more

10-Day Weather Forecast

Advertisements
Track Severe Weather on mobile